Tabatinga, Tabatinga International Airport (SBTT)

NameTabatinga International Airport
CityTabatinga
CountryBrazil
ICAOSBTT
IATATBT
Altitude85 m
CoordinatesGoogle Map
Live Air TrafficLiveATC.net
METARSBTT 172300Z 25002KT CAVOK 26/24 Q1010
2020-01-17 23:00:00 Wind: West-Southwest (250°) 1.03 m/s - Visibility: > 10000 m - Weather: CAVOK - Temperature: 26 °C - Dew point: 24 °C - Humidity: 88.8% - Pressure: 1010 hPa
Statistics

The table below shows the detailed information of all flights to/from Tabatinga, Tabatinga International Airport (SBTT).